Owen Sound, Canada
Current Conditions -  °F | °C
As of 6:00 AM on Friday 31 Oct 2014 (Local Time) from CYVV Reporting Station
Light Rain Light Rain  
Wind Chill: 36°   Ceiling: 2300
Heat Index: 41°   Visibility: 8mi
Dew Point: 39°   Wind: 8mph
Humidity: 93%   Direction: 170°S
Pressure: 29.87"   Gusts: NA
Location:  44.56°N, 80.94°W
Report Text: CYVV 311000Z 17007KT 8SM -RA OVC023 05/04 A2987 RMK SC8 SLP124
Loading
Personal Weather Stations






























Interactive Weather Map
Tropical Storm Tracking
New forecast layout! Learn more

10-Day Weather Forecast

Advertisements
Track Severe Weather on mobile